Terminal Aerodrome Forecast
Issued by NWS Buffalo, NY

Home | Current Version | Previous Version | Text Only | Print | Product List | Glossary On
Versions: 1 2 3 4 5 6 7 8 9 10 11 12 13 14 15 16 17 18 19 20 21 22 23 24 25 26 27 28 29 30
000
FTUS41 KBUF 271301 AAA
TAFART
TAF AMD
KART 271301Z 2713/2812 16010KT 2SM -SHRA OVC020
     FM271500 18008KT 6SM BR VCSH OVC025
     FM271900 19006KT 3SM BR OVC007
     FM280200 19005KT 5SM BR OVC012
     FM280600 21006KT 4SM BR OVC012
     FM281100 22005KT 3SM BR VCSH OVC012=

USA.gov is the U.S. government's official web portal to all federal, state and local government web resources and services.